This is the latest recevied weather packets stored in our database for station/object SQ5SUI-3. If no packets are shown the sender has not sent any weather packets the latest 10 day(s).
| Time | Temp. | Humidity | Pressure | Rain* | Wind** | Luminosity | Snow |
|---|---|---|---|---|---|---|---|
| 1777629321 | 17.22° C | 29% | 997.2 hPa | 0 mm | - | - | - |
| 1777627521 | 17.78° C | 30% | 996.8 hPa | 0 mm | - | - | - |
| 1777625721 | 17.22° C | 28% | 996.8 hPa | 0 mm | - | - | - |
| 1777623920 | 16.67° C | 34% | 996.5 hPa | 0 mm | - | - | - |
| 1777622121 | 16.11° C | 38% | 996.4 hPa | 0 mm | - | - | - |
| 1777620322 | 14.44° C | 41% | 996.1 hPa | 0 mm | - | - | - |
| 1777618521 | 13.33° C | 42% | 996.1 hPa | 0 mm | - | - | - |
| 1777616720 | 12.22° C | 42% | 996 hPa | 0 mm | - | - | - |
| 1777614921 | 11.11° C | 43% | 996.2 hPa | 0 mm | - | - | - |
| 1777613120 | 10° C | 47% | 996 hPa | 0 mm | - | - | - |
| 1777611320 | 8.33° C | 51% | 995.9 hPa | 0 mm | - | - | - |
| 1777609522 | 7.22° C | 51% | 996 hPa | 0 mm | - | - | - |
| 1777607721 | 6.67° C | 55% | 995.8 hPa | 0 mm | - | - | - |
| 1777605921 | 6.67° C | 50% | 995.8 hPa | 0 mm | - | - | - |
| 1777604121 | 6.67° C | 49% | 995.7 hPa | 0 mm | - | - | - |
| 1777602322 | 7.22° C | 45% | 995.7 hPa | 0 mm | - | - | - |
| 1777600522 | 6.67° C | 49% | 995.5 hPa | 0 mm | - | - | - |
| 1777598722 | 7.22° C | 47% | 995.4 hPa | 0 mm | - | - | - |
| 1777596921 | 6.67° C | 54% | 995.4 hPa | 0 mm | - | - | - |
| 1777595120 | 7.22° C | 47% | 995.2 hPa | 0 mm | - | - | - |
| 1777593322 | 6.11° C | 57% | 995.3 hPa | 0 mm | - | - | - |
| 1777591522 | 6.11° C | 57% | 995.1 hPa | 0 mm | - | - | - |
| 1777589721 | 6.11° C | 60% | 995.1 hPa | 0 mm | - | - | - |
| 1777587921 | 5.56° C | 58% | 995.1 hPa | 0 mm | - | - | - |
| 1777586120 | 6.67° C | 52% | 995.1 hPa | 0 mm | - | - | - |
* Rain latest hour (hover to see other rain measurements)
** Current wind speed in m/s (hover to see current wind gust speed)